^^
Station Historical Data
 
Daily Summary for June 21, 2018 Units:  Metric    English   Both
« Previous Day
Next Day »
Daily Weekly Monthly Yearly Custom
  Current: High: Low: Average:
Temperature: -10.4 °C -17.8 °C -12.4 °C -11.3 °C
Dew Point: -12.3 °C -17.8 °C -13.3 °C -12.7 °C
Humidity: 80% Humidity% 77% 83%
Wind Speed: 0km/h 0km/h 0km/h 0km/h
Wind Gust: 3.1km/h 0km/h - -
WindCalm - - SW
Pressure: 34025.9 hPa 0 hPa 34015.8 hPa -
Precipitation: 0 mm      
Historical Graphs
 
 
Tabular Data for June 21, 2018
Time Temperature Dew Point Pressure Wind Wind Speed Wind Gust Humidity Rainfall Rate (Hourly) solar Conditions
-17.8 °C -17.8 °C 0 hPa Calm     Humidity% 0 mm SoftwareType W/m2 Conditions
00:04 -10.1 °C -12.3 °C 34066.5 hPa Calm   9 km/h 77% 0 mm WeatherDisplay:10.37 W/m2 CLR
00:09 -10.2 °C -12.3 °C 34063.2 hPa Calm     77% 0 mm WeatherDisplay:10.37 W/m2 CLR
00:14 -10.2 °C -12.4 °C 34063.2 hPa Calm     77% 0 mm WeatherDisplay:10.37 W/m2 CLR
00:19 -10.2 °C -12.4 °C 34063.2 hPa Calm     77% 0 mm WeatherDisplay:10.37 W/m2 CLR
00:24 -10.2 °C -12.3 °C 34063.2 hPa Calm   3.1 km/h 78% 0 mm WeatherDisplay:10.37 W/m2 CLR
00:29 -10.3 °C -12.4 °C 34059.8 hPa Calm     78% 0 mm WeatherDisplay:10.37 W/m2 CLR
00:34 -10.3 °C -12.4 °C 34059.8 hPa Calm     78% 0 mm WeatherDisplay:10.37 W/m2 CLR
00:39 -10.3 °C -12.3 °C 34056.4 hPa Calm     79% 0 mm WeatherDisplay:10.37 W/m2 CLR
00:44 -10.4 °C -12.3 °C 34056.4 hPa Calm     80% 0 mm WeatherDisplay:10.37 W/m2 CLR
00:49 -10.4 °C -12.3 °C 34056.4 hPa Calm     80% 0 mm WeatherDisplay:10.37 W/m2 CLR
00:54 -10.4 °C -12.3 °C 34053 hPa Calm     80% 0 mm WeatherDisplay:10.37 W/m2 CLR
00:59 -10.4 °C -12.3 °C 34056.4 hPa Calm     80% 0 mm WeatherDisplay:10.37 W/m2 CLR
01:04 -10.4 °C -12.2 °C 34053 hPa Calm   3.1 km/h 81% 0 mm WeatherDisplay:10.37 W/m2 CLR
01:09 -10.4 °C -12.2 °C 34053 hPa Calm     81% 0 mm WeatherDisplay:10.37 W/m2 CLR
01:14 -10.5 °C -12.3 °C 34049.6 hPa Calm     81% 0 mm WeatherDisplay:10.37 W/m2 CLR
01:19 -10.5 °C -12.3 °C 34049.6 hPa Calm     81% 0 mm WeatherDisplay:10.37 W/m2 CLR
01:24 -10.5 °C -12.3 °C 34049.6 hPa Calm     81% 0 mm WeatherDisplay:10.37 W/m2 CLR
01:29 -10.6 °C -12.3 °C 34049.6 hPa Calm     81% 0 mm WeatherDisplay:10.37 W/m2 CLR
01:34 -10.6 °C -12.3 °C 34053 hPa Calm     82% 0 mm WeatherDisplay:10.37 W/m2 CLR
01:39 -10.6 °C -12.3 °C 34046.2 hPa Calm     82% 0 mm WeatherDisplay:10.37 W/m2 CLR
01:44 -10.6 °C -12.4 °C 34049.6 hPa Calm     81% 0 mm WeatherDisplay:10.37 W/m2 CLR
01:49 -10.6 °C -12.4 °C 34046.2 hPa Calm     81% 0 mm WeatherDisplay:10.37 W/m2 CLR
01:54 -10.6 °C -12.4 °C 34046.2 hPa Calm     81% 0 mm WeatherDisplay:10.37 W/m2 CLR
01:59 -10.7 °C -12.4 °C 34046.2 hPa Calm     81% 0 mm WeatherDisplay:10.37 W/m2 CLR
02:04 -10.7 °C -12.6 °C 34046.2 hPa Calm     80% 0 mm WeatherDisplay:10.37 W/m2 CLR
02:09 -10.7 °C -12.4 °C 34049.6 hPa Calm     81% 0 mm WeatherDisplay:10.37 W/m2 CLR
02:14 -10.7 °C -12.5 °C 34049.6 hPa Calm     81% 0 mm WeatherDisplay:10.37 W/m2 CLR
02:19 -10.7 °C -12.5 °C 34046.2 hPa Calm     81% 0 mm WeatherDisplay:10.37 W/m2 CLR
02:24 -10.8 °C -12.6 °C 34046.2 hPa West 0.8 km/h 5.1 km/h 81% 0 mm WeatherDisplay:10.37 W/m2 CLR
02:29 -10.8 °C -12.6 °C 34046.2 hPa Calm     81% 0 mm WeatherDisplay:10.37 W/m2 CLR
02:34 -10.9 °C -12.6 °C 34042.8 hPa Calm     81% 0 mm WeatherDisplay:10.37 W/m2 CLR
02:39 -10.9 °C -12.6 °C 34039.5 hPa Calm     81% 0 mm WeatherDisplay:10.37 W/m2 CLR
02:44 -10.9 °C -12.7 °C 34039.5 hPa Calm     81% 0 mm WeatherDisplay:10.37 W/m2 CLR
02:49 -10.9 °C -12.6 °C 34036.1 hPa Calm     82% 0 mm WeatherDisplay:10.37 W/m2 CLR
02:54 -11 °C -12.7 °C 34032.7 hPa Calm     82% 0 mm WeatherDisplay:10.37 W/m2 CLR
02:59 -11 °C -12.7 °C 34036.1 hPa Calm     82% 0 mm WeatherDisplay:10.37 W/m2 CLR
03:04 -11 °C -12.6 °C 34036.1 hPa Calm     83% 0 mm WeatherDisplay:10.37 W/m2 CLR
03:09 -11 °C -12.6 °C 34036.1 hPa Calm     83% 0 mm WeatherDisplay:10.37 W/m2 CLR
03:14 -11 °C -12.6 °C 34039.5 hPa Calm     83% 0 mm WeatherDisplay:10.37 W/m2 CLR
03:19 -11.1 °C -12.6 °C 34039.5 hPa Calm     83% 0 mm WeatherDisplay:10.37 W/m2 CLR
03:24 -11.1 °C -12.7 °C 34039.5 hPa Calm     83% 0 mm WeatherDisplay:10.37 W/m2 CLR
03:29 -11.2 °C -12.7 °C 34039.5 hPa Calm     84% 0 mm WeatherDisplay:10.37 W/m2 CLR
03:34 -11.3 °C -12.7 °C 34036.1 hPa Calm     84% 0 mm WeatherDisplay:10.37 W/m2 CLR
03:39 -11.3 °C -12.7 °C 34036.1 hPa Calm     85% 0 mm WeatherDisplay:10.37 W/m2 CLR
03:44 -11.5 °C -12.8 °C 34032.7 hPa Calm     85% 0 mm WeatherDisplay:10.37 W/m2 CLR
03:49 -11.6 °C -12.9 °C 34032.7 hPa Calm     85% 0 mm WeatherDisplay:10.37 W/m2 CLR
03:54 -11.7 °C -12.9 °C 34029.3 hPa Calm     86% 0 mm WeatherDisplay:10.37 W/m2 CLR
03:59 -11.8 °C -13.1 °C 34025.9 hPa Calm     86% 0 mm WeatherDisplay:10.37 W/m2 CLR
04:04 -11.9 °C -13.1 °C 34025.9 hPa Calm     87% 0 mm WeatherDisplay:10.37 W/m2 CLR
04:09 -12 °C -13.2 °C 34025.9 hPa Calm     87% 0 mm WeatherDisplay:10.37 W/m2 CLR
04:14 -12.1 °C -13.2 °C 34025.9 hPa Calm     88% 0 mm WeatherDisplay:10.37 W/m2 CLR
04:19 -12.2 °C -13.2 °C 34025.9 hPa Calm     88% 0 mm WeatherDisplay:10.37 W/m2 CLR
04:24 -12.2 °C -13.2 °C 34029.3 hPa Calm     88% 0 mm WeatherDisplay:10.37 W/m2 CLR
04:29 -12.3 °C -13.2 °C 34029.3 hPa Calm     89% 0 mm WeatherDisplay:10.37 W/m2 CLR
04:34 -12.3 °C -13.2 °C 34029.3 hPa Calm     89% 0 mm WeatherDisplay:10.37 W/m2 CLR
04:39 -12.3 °C -13.3 °C 34029.3 hPa Calm     89% 0 mm WeatherDisplay:10.37 W/m2 CLR
04:44 -12.3 °C -13.3 °C 34029.3 hPa Calm     89% 0 mm WeatherDisplay:10.37 W/m2 CLR
04:49 -12.4 °C -13.3 °C 34029.3 hPa Calm     89% 0 mm WeatherDisplay:10.37 W/m2 CLR
04:54 -12.4 °C -13.2 °C 34029.3 hPa Calm     90% 0 mm WeatherDisplay:10.37 W/m2 CLR
04:59 -12.4 °C -13.3 °C 34029.3 hPa Calm     90% 0 mm WeatherDisplay:10.37 W/m2 CLR
05:04 -12.4 °C -13.3 °C 34029.3 hPa Calm     90% 0 mm WeatherDisplay:10.37 W/m2 CLR
05:09 -12.4 °C -13.3 °C 34029.3 hPa Calm     90% 0 mm WeatherDisplay:10.37 W/m2 CLR
05:14 -12.4 °C -13.3 °C 34029.3 hPa Calm     90% 0 mm WeatherDisplay:10.37 W/m2 CLR
05:19 -12.4 °C -13.3 °C 34029.3 hPa Calm     90% 0 mm WeatherDisplay:10.37 W/m2 CLR
05:24 -12.3 °C -13.2 °C 34029.3 hPa Calm     90% 0 mm WeatherDisplay:10.37 W/m2 CLR
05:29 -12.3 °C -13.2 °C 34029.3 hPa Calm     90% 0 mm WeatherDisplay:10.37 W/m2 CLR
05:34 -12.3 °C -13.1 °C 34029.3 hPa Calm     90% 0 mm WeatherDisplay:10.37 W/m2 CLR
05:39 -12.2 °C -12.7 °C 34029.3 hPa Calm     94% 0 mm WeatherDisplay:10.37 W/m2 CLR
05:44 -12.2 °C -13 °C 34029.3 hPa Calm     90% 0 mm WeatherDisplay:10.37 W/m2 CLR
05:49 -12.1 °C -12.9 °C 34025.9 hPa Calm     90% 0 mm WeatherDisplay:10.37 W/m2 CLR
05:54 -12 °C -12.9 °C 34025.9 hPa Calm     89% 0 mm WeatherDisplay:10.37 W/m2 CLR
05:59 -11.9 °C -12.8 °C 34022.5 hPa Calm     89% 0 mm WeatherDisplay:10.37 W/m2 CLR
06:04 -11.8 °C -12.8 °C 34022.5 hPa Calm     88% 0 mm WeatherDisplay:10.37 W/m2 CLR
06:09 -11.7 °C -12.7 °C 34022.5 hPa Calm     88% 0 mm WeatherDisplay:10.37 W/m2 CLR
06:14 -11.6 °C -12.8 °C 34022.5 hPa Calm     87% 0 mm WeatherDisplay:10.37 W/m2 CLR
06:19 -11.6 °C -12.8 °C 34022.5 hPa Calm     86% 0 mm WeatherDisplay:10.37 W/m2 CLR
06:24 -11.5 °C -12.8 °C 34022.5 hPa Calm     85% 0 mm WeatherDisplay:10.37 W/m2 CLR
06:29 -11.4 °C -12.7 °C 34019.1 hPa Calm     85% 0 mm WeatherDisplay:10.37 W/m2 CLR
06:34 -11.3 °C -12.8 °C 34019.1 hPa Calm     83% 0 mm WeatherDisplay:10.37 W/m2 CLR
06:39 -11.2 °C -12.7 °C 34019.1 hPa Calm     83% 0 mm WeatherDisplay:10.37 W/m2 CLR
06:44 -11.1 °C -12.6 °C 34019.1 hPa Calm     84% 0 mm WeatherDisplay:10.37 W/m2 CLR
06:49 -11 °C -12.7 °C 34015.8 hPa Calm     82% 0 mm WeatherDisplay:10.37 W/m2 CLR
06:54 -11 °C -12.7 °C 34019.1 hPa Calm     81% 0 mm WeatherDisplay:10.37 W/m2 CLR
06:59 -10.9 °C -12.6 °C 34022.5 hPa Calm     82% 0 mm WeatherDisplay:10.37 W/m2 CLR
07:04 -10.9 °C -12.6 °C 34022.5 hPa Calm     82% 0 mm WeatherDisplay:10.37 W/m2 CLR
07:09 -10.8 °C -12.6 °C 34022.5 hPa Calm   3.1 km/h 81% 0 mm WeatherDisplay:10.37 W/m2 CLR
07:14 -10.8 °C -12.6 °C 34022.5 hPa Calm     81% 0 mm WeatherDisplay:10.37 W/m2 CLR
07:19 -10.7 °C -12.4 °C 34025.9 hPa Calm     81% 0 mm WeatherDisplay:10.37 W/m2 CLR
07:24 -10.6 °C -12.4 °C 34022.5 hPa Calm     80% 0 mm WeatherDisplay:10.37 W/m2 CLR
07:29 -10.5 °C -12.4 °C 34022.5 hPa Calm     80% 0 mm WeatherDisplay:10.37 W/m2 CLR
07:34 -10.5 °C -12.5 °C 34025.9 hPa Calm     79% 0 mm WeatherDisplay:10.37 W/m2 SCT
07:39 -10.4 °C -12.2 °C 34025.9 hPa SSW 0.3 km/h 2.6 km/h 81% 0 mm WeatherDisplay:10.37 W/m2 SCT
07:44 -10.4 °C -12.3 °C 34025.9 hPa Calm   3.1 km/h 80% 0 mm WeatherDisplay:10.37 W/m2 SCT
Tuulensuunkaari, Veikkola, Suomi
Compliments of Weather Underground - 1.75 mb